Time;durP1;ratioP1;P1;durP2;ratioP2;P2;SDS_P1;SDS_P2;PMS_P1;PMS_P2;Temp;Humidity;BMP_temperature;BMP_pressure;BME280_temperature;BME280_humidity;BME280_pressure;Samples;Min_cycle;Max_cycle;Signal;HPM_P1;HPM_P2
2022/04/28 00:00:49;;;;;;;26.63;17.33;;;12.30;43.90;;;;;;5024305;28;20239;-74
2022/04/28 00:03:15;;;;;;;27.60;18.63;;;12.10;44.30;;;;;;5013452;28;20185;-75
2022/04/28 00:05:41;;;;;;;32.75;18.50;;;12.00;44.60;;;;;;5019052;28;20644;-75
2022/04/28 00:08:08;;;;;;;28.20;18.90;;;12.10;44.10;;;;;;5015675;28;20216;-75
2022/04/28 00:10:35;;;;;;;28.33;18.52;;;11.80;45.00;;;;;;5019805;28;20310;-76
2022/04/28 00:13:01;;;;;;;27.92;17.23;;;11.80;45.70;;;;;;5017522;28;20185;-76
2022/04/28 00:15:28;;;;;;;32.53;18.40;;;11.80;45.80;;;;;;5014582;28;20204;-76
2022/04/28 00:17:54;;;;;;;28.27;18.70;;;11.70;46.40;;;;;;5016472;28;20229;-77
2022/04/28 00:20:19;;;;;;;30.70;18.00;;;11.40;47.90;;;;;;5015191;28;20612;-75
2022/04/28 00:22:45;;;;;;;28.23;18.77;;;11.40;46.90;;;;;;5026865;28;20675;-75
2022/04/28 00:25:11;;;;;;;29.77;18.13;;;11.60;45.80;;;;;;5020485;28;20199;-74
2022/04/28 00:27:37;;;;;;;26.40;17.10;;;11.70;46.10;;;;;;5022919;28;20189;-75
2022/04/28 00:30:04;;;;;;;32.70;18.20;;;11.80;45.20;;;;;;5021674;28;20204;-74
2022/04/28 00:32:30;;;;;;;24.98;16.40;;;11.70;45.70;;;;;;5018881;28;20197;-77
2022/04/28 00:34:56;;;;;;;28.27;17.38;;;12.10;45.90;;;;;;5031123;28;20176;-77
2022/04/28 00:37:22;;;;;;;24.27;17.03;;;11.60;45.60;;;;;;5009942;28;20199;-74
2022/04/28 00:39:48;;;;;;;30.43;17.30;;;11.60;45.60;;;;;;5015803;28;20201;-74
2022/04/28 00:42:16;;;;;;;30.88;17.63;;;11.50;46.50;;;;;;5014414;28;20434;-75
2022/04/28 00:44:42;;;;;;;24.25;17.15;;;11.50;45.30;;;;;;5022148;28;20193;-75
2022/04/28 00:47:09;;;;;;;23.50;16.45;;;11.20;46.90;;;;;;5017866;28;20175;-77
2022/04/28 00:52:20;;;;;;;31.23;17.65;;;11.40;46.70;;;;;;5021867;28;20217;-75
2022/04/28 00:54:47;;;;;;;23.52;16.75;;;11.20;47.40;;;;;;5024400;28;20194;-75
2022/04/28 00:57:13;;;;;;;26.10;17.95;;;11.40;45.80;;;;;;5016993;28;20259;-77
2022/04/28 00:59:39;;;;;;;25.40;17.92;;;11.30;45.90;;;;;;5017745;28;20238;-76
2022/04/28 01:02:06;;;;;;;27.53;17.17;;;11.40;46.00;;;;;;5019714;28;20193;-77
2022/04/28 01:04:32;;;;;;;27.23;17.23;;;11.30;46.00;;;;;;5024922;28;20266;-76
2022/04/28 01:06:58;;;;;;;23.02;16.50;;;11.10;46.20;;;;;;5015539;28;20237;-74
2022/04/28 01:09:24;;;;;;;26.07;16.90;;;11.30;45.50;;;;;;5017375;28;20239;-75
2022/04/28 01:11:50;;;;;;;26.93;18.60;;;11.20;46.90;;;;;;5015447;28;20234;-76
2022/04/28 01:14:15;;;;;;;28.63;17.17;;;11.20;46.20;;;;;;5017552;28;20553;-76
2022/04/28 01:16:41;;;;;;;29.53;18.27;;;11.30;46.00;;;;;;5010687;28;20462;-75
2022/04/28 01:19:07;;;;;;;29.83;18.30;;;11.20;45.90;;;;;;5008410;28;20208;-74
2022/04/28 01:21:33;;;;;;;32.10;17.97;;;11.10;47.20;;;;;;5012338;28;20219;-74
2022/04/28 01:23:59;;;;;;;31.77;17.45;;;11.10;46.80;;;;;;5028618;28;20525;-74
2022/04/28 01:26:27;;;;;;;29.13;17.25;;;11.00;47.30;;;;;;5012687;28;20195;-74
2022/04/28 01:28:52;;;;;;;28.27;18.73;;;11.00;46.70;;;;;;5012332;28;20707;-75
2022/04/28 01:31:18;;;;;;;27.70;18.13;;;10.90;46.80;;;;;;5012613;28;20187;-74
2022/04/28 01:33:44;;;;;;;27.60;18.00;;;10.80;47.30;;;;;;5019738;28;20178;-77
2022/04/28 01:36:10;;;;;;;31.90;18.87;;;10.70;47.80;;;;;;5010896;28;20662;-75
2022/04/28 01:38:36;;;;;;;31.52;17.98;;;10.80;46.60;;;;;;5032950;22;20220;-72
2022/04/28 01:41:01;;;;;;;26.20;17.07;;;10.90;46.20;;;;;;5050389;28;20650;-72
2022/04/28 01:43:27;;;;;;;26.60;16.97;;;10.70;47.20;;;;;;5049491;28;20194;-72
2022/04/28 01:45:53;;;;;;;35.07;17.40;;;10.60;47.10;;;;;;5050847;28;20183;-72
2022/04/28 01:48:18;;;;;;;25.90;16.67;;;10.50;47.90;;;;;;5049685;28;20223;-74
2022/04/28 01:54:57;;;;;;;30.93;17.53;;;10.50;49.00;;;;;;5048270;28;20633;-72
2022/04/28 01:56:14;;;;;;;25.23;16.80;;;10.50;48.80;;;;;;5050793;28;20243;-72
2022/04/28 01:58:39;;;;;;;26.70;15.50;;;10.40;48.00;;;;;;5049671;28;20207;-72
2022/04/28 02:01:05;;;;;;;25.07;16.60;;;10.40;47.40;;;;;;5050020;28;20699;-72
2022/04/28 02:03:30;;;;;;;28.40;17.27;;;10.30;48.80;;;;;;5050058;28;20188;-73
2022/04/28 02:05:56;;;;;;;27.40;17.07;;;10.50;47.80;;;;;;5050587;28;20613;-72
2022/04/28 02:08:22;;;;;;;24.47;17.07;;;10.50;46.90;;;;;;5048822;28;20288;-72
2022/04/28 02:10:48;;;;;;;24.57;16.73;;;10.50;48.60;;;;;;5048316;28;20504;-72
2022/04/28 02:13:14;;;;;;;26.58;16.83;;;10.60;47.60;;;;;;5050720;28;20182;-72
2022/04/28 02:15:39;;;;;;;26.27;15.93;;;10.50;48.00;;;;;;5050359;28;20233;-72
2022/04/28 02:18:05;;;;;;;29.30;18.00;;;10.40;47.50;;;;;;5049324;28;20177;-72
2022/04/28 02:20:31;;;;;;;26.60;16.20;;;10.40;48.50;;;;;;5049660;28;20196;-73
2022/04/28 02:22:58;;;;;;;28.30;17.47;;;10.30;47.90;;;;;;5052684;28;20195;-72
2022/04/28 02:25:24;;;;;;;26.60;18.15;;;10.40;47.10;;;;;;5049249;28;20422;-72
2022/04/28 02:27:50;;;;;;;29.90;17.65;;;10.50;47.40;;;;;;5050586;28;20274;-72
2022/04/28 02:30:15;;;;;;;28.67;17.53;;;10.40;47.40;;;;;;5049658;28;20269;-72
2022/04/28 02:35:25;;;;;;;26.50;17.17;;;10.30;47.90;;;;;;5048080;28;20227;-72
2022/04/28 02:37:52;;;;;;;28.77;17.23;;;10.10;48.40;;;;;;5050045;28;20205;-72
2022/04/28 02:40:18;;;;;;;27.50;18.52;;;10.20;48.80;;;;;;5048476;28;20195;-72
2022/04/28 02:42:43;;;;;;;25.80;17.20;;;10.20;48.10;;;;;;5051542;28;20199;-73
2022/04/28 02:45:09;;;;;;;34.17;18.53;;;10.10;48.30;;;;;;5048639;28;20256;-72
2022/04/28 02:47:35;;;;;;;28.43;18.57;;;9.90;50.60;;;;;;5050238;28;20237;-72
2022/04/28 02:50:02;;;;;;;26.23;16.70;;;10.00;49.30;;;;;;5049098;28;20537;-72
2022/04/28 02:52:29;;;;;;;26.02;17.63;;;10.10;48.60;;;;;;5051351;28;20200;-72
2022/04/28 02:54:55;;;;;;;25.63;17.70;;;10.10;48.60;;;;;;5052989;28;20285;-72
2022/04/28 02:57:20;;;;;;;29.57;18.63;;;9.90;49.50;;;;;;5052553;28;20237;-72
2022/04/28 02:59:46;;;;;;;29.40;18.43;;;9.90;49.50;;;;;;5052641;28;20208;-72
2022/04/28 03:02:11;;;;;;;27.77;17.90;;;9.80;49.40;;;;;;5053090;28;20184;-72
2022/04/28 03:04:37;;;;;;;30.00;18.93;;;9.70;50.30;;;;;;5052303;28;20643;-72
2022/04/28 03:12:35;;;;;;;26.95;17.33;;;9.90;49.50;;;;;;5054064;28;20736;-72
2022/04/28 03:15:06;;;;;;;29.45;17.85;;;10.00;47.60;;;;;;5052542;28;20225;-72
2022/04/28 03:17:33;;;;;;;28.48;18.77;;;10.10;47.20;;;;;;5053790;28;20169;-72
2022/04/28 03:19:59;;;;;;;27.60;18.63;;;9.90;49.10;;;;;;5052581;28;20797;-73
2022/04/28 03:22:24;;;;;;;30.73;18.37;;;9.80;49.40;;;;;;5052759;28;20267;-72
2022/04/28 03:24:50;;;;;;;32.23;19.03;;;9.70;49.70;;;;;;5052386;28;20514;-72
2022/04/28 03:27:16;;;;;;;29.80;18.60;;;9.70;49.90;;;;;;5053257;28;20261;-72
2022/04/28 03:29:41;;;;;;;32.70;19.37;;;9.60;49.60;;;;;;5053102;28;20214;-72
2022/04/28 03:32:10;;;;;;;32.10;18.53;;;9.70;49.60;;;;;;5052859;28;20177;-72
2022/04/28 03:34:35;;;;;;;37.95;20.73;;;9.60;49.20;;;;;;5052458;28;20668;-71
2022/04/28 03:37:01;;;;;;;28.70;19.53;;;9.70;49.30;;;;;;5052164;28;20192;-72
2022/04/28 03:39:28;;;;;;;33.28;19.17;;;9.60;50.10;;;;;;5051720;28;20632;-72
2022/04/28 03:41:53;;;;;;;30.70;18.50;;;9.50;49.60;;;;;;5051481;28;20235;-72
2022/04/28 03:44:20;;;;;;;30.97;19.83;;;9.60;49.00;;;;;;5053111;28;20180;-72
2022/04/28 03:46:46;;;;;;;32.03;18.92;;;9.50;49.10;;;;;;5051411;28;20179;-73
2022/04/28 03:49:12;;;;;;;34.93;18.90;;;9.60;50.00;;;;;;5051327;28;20222;-73
2022/04/28 03:51:37;;;;;;;33.92;20.92;;;9.50;49.20;;;;;;5052604;28;20414;-72
2022/04/28 03:54:03;;;;;;;31.50;19.73;;;9.60;49.40;;;;;;5051949;28;20218;-71
2022/04/28 03:56:31;;;;;;;34.47;19.77;;;9.60;49.20;;;;;;5049005;28;20198;-72
2022/04/28 03:58:58;;;;;;;33.80;18.75;;;9.70;48.10;;;;;;5051901;28;20207;-72
2022/04/28 04:01:24;;;;;;;34.00;20.20;;;9.60;49.20;;;;;;5052139;28;20771;-72
2022/04/28 04:03:49;;;;;;;31.30;19.67;;;9.70;47.80;;;;;;5052795;28;20188;-72
2022/04/28 04:06:15;;;;;;;31.50;20.20;;;9.60;48.30;;;;;;5050019;28;20423;-72
2022/04/28 04:08:41;;;;;;;33.43;20.90;;;9.40;49.10;;;;;;5052415;28;20208;-72
2022/04/28 04:11:06;;;;;;;32.13;19.20;;;9.50;48.70;;;;;;5051362;28;20553;-72
2022/04/28 04:13:32;;;;;;;33.47;21.30;;;9.30;49.00;;;;;;5052612;28;20222;-72
2022/04/28 04:15:57;;;;;;;37.43;21.60;;;9.30;49.60;;;;;;5051252;28;20752;-71
2022/04/28 04:18:23;;;;;;;37.00;20.90;;;9.40;49.10;;;;;;5052318;28;20196;-72
2022/04/28 04:20:49;;;;;;;31.40;19.87;;;9.30;50.80;;;;;;5051861;28;20664;-73
2022/04/28 04:23:15;;;;;;;34.57;22.70;;;9.20;51.00;;;;;;5052221;28;20191;-73
2022/04/28 04:25:41;;;;;;;36.38;22.23;;;9.20;49.70;;;;;;5052798;28;20673;-72
2022/04/28 04:28:06;;;;;;;42.57;24.67;;;9.50;49.10;;;;;;5050633;28;20192;-72
2022/04/28 04:33:16;;;;;;;37.33;23.20;;;9.60;48.20;;;;;;5052347;28;20326;-73
2022/04/28 04:35:42;;;;;;;35.63;21.93;;;9.60;49.00;;;;;;5052646;28;20259;-72
2022/04/28 04:38:07;;;;;;;38.93;22.47;;;9.40;49.20;;;;;;5051481;28;20172;-72
2022/04/28 04:40:33;;;;;;;45.10;24.30;;;9.40;49.20;;;;;;5051264;28;20184;-72
2022/04/28 04:42:59;;;;;;;44.50;23.00;;;9.40;50.70;;;;;;5051083;28;20184;-73
2022/04/28 04:45:24;;;;;;;35.53;22.43;;;9.50;49.10;;;;;;5051832;28;20172;-72
2022/04/28 04:47:50;;;;;;;38.57;23.67;;;9.60;49.20;;;;;;5051934;28;20184;-72
2022/04/28 04:50:15;;;;;;;46.20;23.90;;;9.70;49.30;;;;;;5050476;28;20212;-72
2022/04/28 04:52:41;;;;;;;46.10;24.33;;;9.60;49.70;;;;;;5054068;28;20168;-72
2022/04/28 04:55:07;;;;;;;43.00;24.07;;;9.70;49.30;;;;;;5051280;28;20266;-72
2022/04/28 04:57:32;;;;;;;41.10;23.80;;;9.70;49.30;;;;;;5051225;28;20242;-72
2022/04/28 04:59:58;;;;;;;39.90;23.83;;;9.70;49.30;;;;;;5050155;28;20507;-72
2022/04/28 05:02:24;;;;;;;35.83;22.67;;;9.60;49.20;;;;;;5049373;28;20191;-72
2022/04/28 05:04:50;;;;;;;46.07;22.70;;;9.80;49.40;;;;;;5051114;28;20188;-72
2022/04/28 05:07:16;;;;;;;45.97;26.58;;;9.90;49.20;;;;;;5051528;28;20765;-72
2022/04/28 05:09:42;;;;;;;45.50;24.50;;;9.80;49.40;;;;;;5051321;28;20220;-72
2022/04/28 05:12:08;;;;;;;55.95;24.50;;;9.80;49.40;;;;;;5048563;28;20434;-72
2022/04/28 05:14:34;;;;;;;46.45;24.90;;;9.90;50.00;;;;;;5051544;28;20215;-72
2022/04/28 05:17:00;;;;;;;43.60;24.57;;;10.10;48.40;;;;;;5048620;28;20207;-72
2022/04/28 05:19:26;;;;;;;44.20;24.85;;;10.20;46.30;;;;;;5050370;28;20691;-72
2022/04/28 05:21:52;;;;;;;43.42;24.15;;;10.20;46.40;;;;;;5048757;28;20194;-72
2022/04/28 05:24:18;;;;;;;38.95;24.02;;;10.10;48.00;;;;;;5048921;28;20180;-72
2022/04/28 05:26:44;;;;;;;39.40;23.77;;;10.30;47.70;;;;;;5051044;28;20192;-72
2022/04/28 05:29:10;;;;;;;39.45;24.63;;;10.30;48.10;;;;;;5051907;28;20212;-72
2022/04/28 05:31:36;;;;;;;46.57;25.83;;;10.40;47.30;;;;;;5050040;28;20244;-72
2022/04/28 05:34:02;;;;;;;45.05;25.38;;;10.50;46.80;;;;;;5049924;28;20255;-72
2022/04/28 05:36:28;;;;;;;40.28;25.27;;;10.60;46.80;;;;;;5050755;28;20177;-72
2022/04/28 05:38:58;;;;;;;42.90;25.60;;;10.60;47.10;;;;;;5047595;28;20218;-71
2022/04/28 05:41:27;;;;;;;47.75;26.40;;;10.70;47.40;;;;;;5048433;28;20306;-72
2022/04/28 05:46:38;;;;;;;45.08;25.73;;;10.80;47.30;;;;;;5051087;28;20302;-75
2022/04/28 05:49:07;;;;;;;64.57;28.27;;;10.70;48.20;;;;;;5049016;28;20303;-75
2022/04/28 05:51:33;;;;;;;40.85;25.95;;;10.90;48.10;;;;;;5047838;28;20180;-75
2022/04/28 05:53:59;;;;;;;42.07;26.60;;;10.90;49.00;;;;;;5054854;28;20316;-73
2022/04/28 05:56:24;;;;;;;45.43;26.87;;;11.10;47.30;;;;;;5050423;28;20566;-73
2022/04/28 05:58:50;;;;;;;42.70;25.87;;;11.20;47.30;;;;;;5049602;28;20194;-73
2022/04/28 06:01:16;;;;;;;36.83;24.47;;;11.10;47.40;;;;;;5048650;28;20191;-73
2022/04/28 06:03:43;;;;;;;41.03;25.43;;;11.10;48.40;;;;;;5050502;28;20416;-71
2022/04/28 06:06:09;;;;;;;49.95;30.88;;;11.00;49.50;;;;;;5050235;28;20181;-73
2022/04/28 06:08:35;;;;;;;46.97;29.50;;;10.80;49.30;;;;;;5049731;28;20204;-73
2022/04/28 06:11:01;;;;;;;45.50;31.13;;;10.60;49.10;;;;;;5049267;28;20176;-73
2022/04/28 06:13:27;;;;;;;47.73;29.70;;;11.00;49.10;;;;;;5050412;28;20182;-73
2022/04/28 06:15:52;;;;;;;46.25;30.95;;;11.10;47.10;;;;;;5049236;28;20694;-73
2022/04/28 06:18:18;;;;;;;50.30;30.13;;;11.60;45.60;;;;;;5049357;28;20203;-73
2022/04/28 06:20:44;;;;;;;41.67;26.93;;;11.90;45.00;;;;;;5054511;28;20274;-73
2022/04/28 06:23:11;;;;;;;41.67;26.77;;;11.60;43.80;;;;;;5051900;28;20186;-73
2022/04/28 06:25:37;;;;;;;42.22;26.27;;;11.30;46.70;;;;;;5050391;28;20326;-73
2022/04/28 06:28:03;;;;;;;40.40;26.30;;;11.20;47.30;;;;;;5050752;28;20669;-73
2022/04/28 06:30:28;;;;;;;48.15;25.17;;;11.60;47.20;;;;;;5054162;28;20461;-73
2022/04/28 06:32:54;;;;;;;44.17;24.27;;;11.80;44.80;;;;;;5052796;28;21035;-73
2022/04/28 06:35:20;;;;;;;39.13;24.03;;;11.40;46.20;;;;;;5054291;28;20179;-73
2022/04/28 06:37:45;;;;;;;33.23;23.43;;;11.70;46.30;;;;;;5053064;28;20831;-74
2022/04/28 06:40:12;;;;;;;34.40;22.90;;;11.50;46.60;;;;;;5048783;28;20215;-74
2022/04/28 06:42:42;;;;;;;42.70;23.97;;;11.30;49.60;;;;;;5052063;28;20253;-73
2022/04/28 06:45:08;;;;;;;41.97;23.97;;;11.70;47.10;;;;;;5053712;28;20440;-74
2022/04/28 06:47:34;;;;;;;44.93;28.13;;;11.80;45.60;;;;;;5053390;28;20468;-75
2022/04/28 06:50:00;;;;;;;39.93;23.47;;;12.10;46.30;;;;;;5049185;28;20458;-73
2022/04/28 06:52:25;;;;;;;39.80;23.00;;;12.10;44.40;;;;;;5050348;28;20445;-73
2022/04/28 06:54:51;;;;;;;42.13;21.93;;;12.40;42.20;;;;;;5048100;28;20192;-74
2022/04/28 06:57:17;;;;;;;36.67;21.80;;;12.40;44.20;;;;;;5054415;28;20643;-74
2022/04/28 06:59:42;;;;;;;32.00;22.40;;;11.90;44.40;;;;;;5052987;28;20222;-74
2022/04/28 07:02:09;;;;;;;44.50;24.63;;;11.90;45.00;;;;;;5074686;28;20205;-75
2022/04/28 07:04:35;;;;;;;35.10;23.50;;;12.70;43.90;;;;;;5056580;28;20180;-74
2022/04/28 07:07:00;;;;;;;33.43;21.70;;;12.70;44.30;;;;;;5053318;28;20811;-73
2022/04/28 07:09:26;;;;;;;30.43;21.10;;;12.80;41.90;;;;;;5053734;28;20462;-73
2022/04/28 07:11:51;;;;;;;35.40;19.93;;;12.40;44.30;;;;;;5049457;28;20744;-74
2022/04/28 07:14:17;;;;;;;30.00;20.47;;;12.60;43.00;;;;;;5052288;28;20190;-73
2022/04/28 07:16:43;;;;;;;31.77;20.50;;;12.70;44.10;;;;;;5053457;28;20183;-73
2022/04/28 07:19:08;;;;;;;32.90;20.00;;;12.70;42.70;;;;;;5053868;28;20203;-74
2022/04/28 07:21:37;;;;;;;35.03;19.47;;;12.10;45.20;;;;;;5050282;28;20302;-73
2022/04/28 07:24:03;;;;;;;30.83;20.80;;;12.10;46.70;;;;;;5050012;28;20183;-73
2022/04/28 07:26:29;;;;;;;32.13;20.20;;;13.00;44.90;;;;;;5053992;28;20851;-74
2022/04/28 07:28:54;;;;;;;26.70;18.97;;;13.60;42.10;;;;;;5051263;28;20243;-73
2022/04/28 07:31:20;;;;;;;33.13;20.80;;;13.20;42.30;;;;;;5050785;28;20430;-72
2022/04/28 07:33:46;;;;;;;31.93;19.60;;;12.90;44.20;;;;;;5052546;28;20190;-73
2022/04/28 07:36:14;;;;;;;44.03;21.30;;;13.20;43.40;;;;;;5053381;28;20426;-73
2022/04/28 07:38:41;;;;;;;26.73;18.53;;;13.70;42.00;;;;;;5052767;28;20248;-74
2022/04/28 07:41:07;;;;;;;25.77;17.33;;;13.70;41.20;;;;;;5051340;28;20438;-72
2022/04/28 07:43:33;;;;;;;30.47;19.60;;;13.80;41.20;;;;;;5053269;28;20815;-72
2022/04/28 07:45:59;;;;;;;29.70;18.10;;;13.60;41.50;;;;;;5052980;28;20436;-73
2022/04/28 07:48:24;;;;;;;24.90;17.13;;;13.60;41.30;;;;;;5053249;28;20274;-73
2022/04/28 07:50:50;;;;;;;26.13;16.50;;;13.60;41.10;;;;;;5052933;28;20213;-73
2022/04/28 07:53:17;;;;;;;26.17;16.93;;;13.30;42.00;;;;;;5052982;28;20190;-74
2022/04/28 07:55:42;;;;;;;23.33;15.47;;;13.60;40.80;;;;;;5053164;28;20427;-72
2022/04/28 07:58:08;;;;;;;20.97;15.27;;;14.40;40.20;;;;;;5052933;28;20838;-74
2022/04/28 08:00:34;;;;;;;27.70;15.03;;;15.10;37.10;;;;;;5052562;28;20666;-72
2022/04/28 08:03:00;;;;;;;21.03;14.77;;;15.10;37.10;;;;;;5052704;28;20176;-72
2022/04/28 08:05:25;;;;;;;22.00;14.27;;;15.60;36.60;;;;;;5052484;28;20930;-73
2022/04/28 08:07:51;;;;;;;18.93;13.57;;;16.10;35.50;;;;;;5052560;28;20561;-73
2022/04/28 08:10:17;;;;;;;21.30;13.30;;;16.40;33.30;;;;;;5052790;28;20203;-73
2022/04/28 08:12:42;;;;;;;25.33;14.93;;;16.50;33.60;;;;;;5051952;28;20184;-73
2022/04/28 08:15:08;;;;;;;26.17;15.70;;;15.50;36.00;;;;;;5052681;28;20901;-73
2022/04/28 08:17:34;;;;;;;23.80;15.23;;;15.40;36.50;;;;;;5052611;28;20184;-73
2022/04/28 08:20:00;;;;;;;34.20;15.30;;;15.30;37.30;;;;;;5052738;28;20450;-72
2022/04/28 08:22:25;;;;;;;17.00;11.93;;;15.50;38.30;;;;;;5052398;28;20453;-72
2022/04/28 08:24:51;;;;;;;20.80;11.87;;;15.30;33.10;;;;;;5052046;28;20559;-73
2022/04/28 08:27:17;;;;;;;17.47;10.80;;;15.80;32.30;;;;;;5052385;28;20185;-74
2022/04/28 08:29:42;;;;;;;14.00;8.03;;;16.00;30.10;;;;;;5052241;28;20207;-72
2022/04/28 08:32:09;;;;;;;11.70;8.20;;;16.50;29.30;;;;;;5052377;28;20177;-73
2022/04/28 08:34:36;;;;;;;23.00;9.30;;;17.00;27.90;;;;;;5051921;28;20183;-74
2022/04/28 08:37:02;;;;;;;25.40;9.70;;;17.20;28.30;;;;;;5052166;28;20485;-73
2022/04/28 08:39:27;;;;;;;17.03;9.23;;;17.00;27.90;;;;;;5051945;28;20462;-74
2022/04/28 08:41:55;;;;;;;16.67;9.10;;;17.20;28.20;;;;;;5051546;28;20426;-74
2022/04/28 08:44:25;;;;;;;21.33;9.90;;;17.70;28.20;;;;;;5052088;28;20181;-73
2022/04/28 08:46:53;;;;;;;16.90;9.60;;;17.70;27.20;;;;;;5051757;28;20437;-73
2022/04/28 08:49:25;;;;;;;23.20;10.40;;;18.00;27.10;;;;;;5044408;28;20458;-73
2022/04/28 08:51:58;;;;;;;14.30;10.33;;;18.40;27.80;;;;;;5051177;28;20513;-73
2022/04/28 08:54:26;;;;;;;10.13;6.97;;;18.20;27.80;;;;;;5052081;28;20415;-74
2022/04/28 08:56:54;;;;;;;11.30;8.60;;;17.90;25.30;;;;;;5051537;28;20438;-74
2022/04/28 08:59:21;;;;;;;16.63;7.93;;;17.70;25.90;;;;;;5052074;28;20506;-74
2022/04/28 09:01:47;;;;;;;18.23;6.60;;;18.00;22.40;;;;;;5051638;28;20429;-74
2022/04/28 09:04:13;;;;;;;9.83;5.23;;;17.90;21.30;;;;;;5050970;28;20422;-73
2022/04/28 09:06:40;;;;;;;10.47;5.67;;;17.60;20.60;;;;;;5051765;28;20451;-74
2022/04/28 09:09:12;;;;;;;7.83;5.73;;;17.90;20.40;;;;;;5051321;28;20466;-74
2022/04/28 09:11:40;;;;;;;7.23;5.80;;;18.10;19.50;;;;;;5051680;28;20414;-73
2022/04/28 09:14:20;;;;;;;10.83;6.93;;;18.40;19.20;;;;;;5050940;28;20462;-75
2022/04/28 09:16:49;;;;;;;10.20;6.30;;;18.40;18.90;;;;;;5051451;28;20541;-73
2022/04/28 09:19:23;;;;;;;8.80;5.90;;;18.30;18.00;;;;;;5050966;28;20499;-74
2022/04/28 09:21:51;;;;;;;10.00;6.80;;;18.70;17.60;;;;;;5051331;28;20862;-73
2022/04/28 09:24:17;;;;;;;17.20;7.60;;;18.80;17.70;;;;;;5051285;28;20428;-73
2022/04/28 09:26:43;;;;;;;7.77;5.90;;;18.70;17.60;;;;;;5051221;28;20424;-74
2022/04/28 09:29:14;;;;;;;9.10;5.80;;;18.90;19.00;;;;;;5051162;28;20218;-74
2022/04/28 09:31:43;;;;;;;6.73;5.33;;;18.50;18.80;;;;;;5051010;28;20269;-73
2022/04/28 09:34:21;;;;;;;9.17;6.50;;;18.50;17.70;;;;;;5051249;28;20426;-74
2022/04/28 09:36:48;;;;;;;13.93;6.67;;;18.90;17.20;;;;;;5044067;28;20417;-73
2022/04/28 09:42:30;;;;;;;8.87;5.77;;;18.60;18.30;;;;;;5051176;28;20949;-73
2022/04/28 09:44:59;;;;;;;7.90;6.00;;;18.70;20.20;;;;;;5049852;28;20511;-74
2022/04/28 09:47:26;;;;;;;10.03;6.20;;;18.70;19.00;;;;;;5036482;28;20924;-75
2022/04/28 09:49:52;;;;;;;10.03;6.23;;;18.80;19.50;;;;;;5044913;28;20468;-75
2022/04/28 09:52:19;;;;;;;7.60;5.33;;;19.20;17.50;;;;;;5035557;28;20501;-73
2022/04/28 09:54:47;;;;;;;8.20;5.80;;;19.60;18.20;;;;;;5045059;28;20428;-74
2022/04/28 09:57:14;;;;;;;9.17;6.40;;;19.70;15.80;;;;;;5051050;28;20898;-73
2022/04/28 09:59:41;;;;;;;11.00;6.80;;;19.60;16.90;;;;;;5050837;28;20856;-74
2022/04/28 10:02:15;;;;;;;10.00;5.70;;;20.10;15.50;;;;;;5050570;28;20429;-73
2022/04/28 10:04:42;;;;;;;9.30;6.47;;;20.00;15.50;;;;;;5049917;28;21053;-73
2022/04/28 10:07:09;;;;;;;8.07;5.97;;;19.60;16.40;;;;;;5042631;28;20510;-74
2022/04/28 10:09:39;;;;;;;10.93;6.00;;;19.80;16.70;;;;;;5050587;28;20986;-74
2022/04/28 10:12:06;;;;;;;19.43;5.90;;;19.80;16.80;;;;;;5050028;28;20421;-73
2022/04/28 10:14:34;;;;;;;7.43;5.60;;;19.70;18.60;;;;;;5050506;28;20928;-74
2022/04/28 10:17:01;;;;;;;11.40;5.97;;;20.20;16.80;;;;;;5050331;28;20496;-74
2022/04/28 10:19:32;;;;;;;10.00;5.87;;;20.40;16.70;;;;;;5050846;28;20750;-73
2022/04/28 10:22:04;;;;;;;12.70;6.80;;;20.20;15.60;;;;;;5050459;28;20426;-73
2022/04/28 10:33:01;;;;;;;9.73;6.03;;;20.50;17.50;;;;;;5050691;28;20550;-73
2022/04/28 10:35:38;;;;;;;8.53;5.90;;;21.00;15.70;;;;;;5050810;28;20778;-73
2022/04/28 10:38:31;;;;;;;9.57;6.90;;;21.20;15.70;;;;;;5050281;28;20475;-73
2022/04/28 10:41:14;;;;;;;9.67;6.10;;;21.10;16.10;;;;;;5044357;28;20454;-74
2022/04/28 10:43:43;;;;;;;10.80;6.00;;;21.60;16.20;;;;;;5049939;28;20430;-75
2022/04/28 10:46:08;;;;;;;9.87;5.10;;;21.30;17.20;;;;;;5049576;28;20426;-73
2022/04/28 10:48:35;;;;;;;8.40;6.07;;;21.30;15.60;;;;;;5048826;28;20799;-75
2022/04/28 10:51:15;;;;;;;9.53;5.67;;;21.10;15.10;;;;;;5050138;28;20603;-74
2022/04/28 10:54:01;;;;;;;10.60;6.40;;;21.10;16.90;;;;;;5050206;28;20419;-76
2022/04/28 10:56:54;;;;;;;8.60;5.93;;;22.20;14.30;;;;;;5050402;28;20993;-73
2022/04/28 10:59:34;;;;;;;8.67;6.47;;;22.90;15.90;;;;;;5050236;28;20492;-74
2022/04/28 11:02:15;;;;;;;8.27;5.97;;;23.40;14.30;;;;;;5049866;28;20417;-73
2022/04/28 11:04:54;;;;;;;12.03;5.83;;;22.80;13.00;;;;;;5050314;28;20441;-73
2022/04/28 11:07:24;;;;;;;10.90;6.03;;;22.10;16.50;;;;;;5043695;28;20779;-74
2022/04/28 11:10:07;;;;;;;11.20;6.10;;;22.40;15.50;;;;;;5049645;28;20475;-75
2022/04/28 11:12:37;;;;;;;8.80;5.90;;;23.00;14.10;;;;;;5049923;28;20428;-73
2022/04/28 11:15:05;;;;;;;7.33;5.50;;;22.90;14.80;;;;;;5051058;28;20444;-73
2022/04/28 11:17:35;;;;;;;7.50;5.70;;;22.90;14.30;;;;;;5052881;28;20891;-75
2022/04/28 11:20:04;;;;;;;8.63;5.53;;;23.80;14.80;;;;;;5053930;28;20449;-74
2022/04/28 11:22:30;;;;;;;9.30;5.93;;;24.70;13.50;;;;;;5053573;28;20430;-74
2022/04/28 11:24:59;;;;;;;7.97;5.87;;;25.10;10.30;;;;;;5053456;28;20425;-75
2022/04/28 11:27:27;;;;;;;9.67;5.60;;;26.70;11.30;;;;;;5053201;28;20176;-76
2022/04/28 11:29:58;;;;;;;9.80;4.87;;;27.70;8.80;;;;;;5053424;28;20458;-74
2022/04/28 11:32:24;;;;;;;5.83;4.63;;;28.70;9.00;;;;;;5053314;28;20429;-75
2022/04/28 11:34:52;;;;;;;7.97;5.23;;;29.20;9.30;;;;;;5053471;28;20776;-74
2022/04/28 11:37:20;;;;;;;6.57;4.83;;;29.10;7.00;;;;;;5053307;28;20458;-74
2022/04/28 11:39:47;;;;;;;6.37;4.47;;;29.90;7.80;;;;;;5053499;28;20548;-75
2022/04/28 11:42:17;;;;;;;7.93;4.73;;;29.70;8.20;;;;;;5053109;28;20414;-74
2022/04/28 11:44:50;;;;;;;16.57;4.87;;;29.10;7.90;;;;;;5053231;28;20418;-74
2022/04/28 11:47:15;;;;;;;4.80;4.23;;;29.40;6.20;;;;;;5053208;28;20500;-74
2022/04/28 11:49:41;;;;;;;7.93;4.50;;;29.10;5.80;;;;;;5052917;28;20581;-74
2022/04/28 11:52:35;;;;;;;8.93;5.30;;;28.30;7.90;;;;;;5053055;28;20583;-74
2022/04/28 11:55:03;;;;;;;14.73;4.63;;;29.20;9.40;;;;;;5045682;28;20442;-75
2022/04/28 11:57:30;;;;;;;10.90;4.73;;;30.50;5.50;;;;;;5053089;28;20945;-74
2022/04/28 11:59:56;;;;;;;11.13;4.90;;;30.10;6.20;;;;;;5052895;28;20446;-74
2022/04/28 12:02:34;;;;;;;6.83;4.97;;;30.60;7.00;;;;;;5052380;28;20426;-72
2022/04/28 12:05:03;;;;;;;5.13;4.60;;;30.30;6.10;;;;;;5052663;28;21808;-72
2022/04/28 12:07:31;;;;;;;7.97;4.67;;;30.40;8.70;;;;;;5052945;28;20917;-75
2022/04/28 12:15:27;;;;;;;5.80;4.30;;;30.90;5.20;;;;;;5052929;28;20483;-72
2022/04/28 12:20:38;;;;;;;8.03;4.27;;;32.10;4.10;;;;;;5046638;28;20437;-72
2022/04/28 12:23:04;;;;;;;10.43;4.30;;;31.80;5.40;;;;;;5049667;28;20430;-72
2022/04/28 12:25:33;;;;;;;5.63;4.13;;;31.10;6.40;;;;;;5049356;28;20195;-74
2022/04/28 12:27:59;;;;;;;5.20;4.20;;;30.20;5.30;;;;;;5049372;28;20719;-73
2022/04/28 12:30:25;;;;;;;5.53;4.17;;;30.10;5.70;;;;;;5049946;28;20549;-75
2022/04/28 12:32:53;;;;;;;15.10;4.20;;;29.70;7.50;;;;;;5051394;28;20187;-73
2022/04/28 12:35:31;;;;;;;5.97;4.50;;;30.40;6.10;;;;;;5050881;28;20176;-75
2022/04/28 12:38:07;;;;;;;7.10;4.33;;;30.70;6.20;;;;;;5051267;28;20457;-74
2022/04/28 12:40:43;;;;;;;5.53;4.50;;;32.10;5.50;;;;;;5052071;28;20509;-73
2022/04/28 12:43:09;;;;;;;17.70;4.57;;;32.60;4.10;;;;;;5051946;28;20421;-73
2022/04/28 12:45:51;;;;;;;7.90;4.40;;;31.70;6.40;;;;;;5050808;28;20442;-74
2022/04/28 12:48:31;;;;;;;6.47;4.00;;;32.00;5.00;;;;;;5051883;28;20463;-73
2022/04/28 12:51:28;;;;;;;5.57;4.60;;;32.80;3.90;;;;;;5048189;28;20519;-73
2022/04/28 12:54:07;;;;;;;7.10;4.33;;;32.50;4.00;;;;;;5002973;28;20436;-73
2022/04/28 12:56:33;;;;;;;7.60;4.70;;;32.30;5.40;;;;;;5004273;28;20432;-74
2022/04/28 12:59:07;;;;;;;6.07;4.53;;;31.70;4.00;;;;;;5009610;28;20507;-73
2022/04/28 13:01:33;;;;;;;7.63;5.10;;;31.80;7.00;;;;;;5008503;28;20977;-73
2022/04/28 13:04:05;;;;;;;6.80;4.80;;;31.70;4.30;;;;;;5009303;28;20424;-73
2022/04/28 13:06:32;;;;;;;8.20;4.67;;;31.80;5.10;;;;;;5009654;28;20957;-73
2022/04/28 13:09:00;;;;;;;7.30;4.50;;;32.00;5.20;;;;;;5007154;28;20447;-73
2022/04/28 13:11:31;;;;;;;6.50;4.60;;;32.60;4.90;;;;;;5004733;28;20526;-75
2022/04/28 13:13:58;;;;;;;8.00;5.03;;;32.40;4.60;;;;;;5009111;28;20432;-75
2022/04/28 13:16:24;;;;;;;5.40;4.47;;;30.60;9.00;;;;;;5008733;28;20770;-75